Terminal Aerodrome Forecast
Issued by NWS Corpus Christi, TX

Home | Current Version | Previous Version | Text Only | Print | Product List | Glossary On
Versions: 1 2 3 4 5 6 7 8 9 10 11 12
000
FTUS44 KCRP 201100
TAFVCT
TAF
KVCT 201130Z 2012/2112 VRB04KT P6SM FEW020 SCT250
     FM201500 18012KT P6SM SCT025 SCT250
     FM202100 15017G24KT P6SM SCT030 SCT250
     FM210100 16008KT P6SM FEW025
      TEMPO 2110/2112 BKN020=

USA.gov is the U.S. government's official web portal to all federal, state and local government web resources and services.